Time;durP1;ratioP1;P1;durP2;ratioP2;P2;SDS_P1;SDS_P2;PMS_P1;PMS_P2;Temp;Humidity;BMP_temperature;BMP_pressure;BME280_temperature;BME280_humidity;BME280_pressure;Samples;Min_cycle;Max_cycle;Signal;HPM_P1;HPM_P2
2023/01/01 00:00:13;;;;;;;4.33;3.33;;;;;;;4.00;93.79;100480.50;5114016;28;20848;-66
2023/01/01 00:02:43;;;;;;;3.78;3.15;;;;;;;3.92;93.78;100481.00;5113957;28;20130;-66
2023/01/01 00:05:13;;;;;;;5.20;3.38;;;;;;;3.83;93.57;100476.47;5113978;28;20036;-66
2023/01/01 00:07:41;;;;;;;5.93;5.43;;;;;;;3.81;93.61;100477.19;5113601;28;20040;-66
2023/01/01 00:12:49;;;;;;;3.30;2.75;;;;;;;3.78;93.86;100477.06;5113458;28;20039;-67
2023/01/01 00:15:18;;;;;;;8.07;2.47;;;;;;;3.69;93.16;100482.63;5113810;28;20440;-66
2023/01/01 00:17:49;;;;;;;8.23;6.00;;;;;;;3.59;93.17;100475.50;5113461;28;20043;-66
2023/01/01 00:20:18;;;;;;;4.78;4.35;;;;;;;3.60;93.26;100482.25;5113823;28;20054;-67
2023/01/01 00:22:47;;;;;;;4.85;4.38;;;;;;;3.54;93.38;100482.03;5113706;28;20046;-66
2023/01/01 00:25:24;;;;;;;3.35;3.05;;;;;;;3.51;93.39;100483.56;5113160;28;20047;-66
2023/01/01 00:27:54;;;;;;;3.60;3.33;;;;;;;3.50;92.87;100490.28;5113461;28;20040;-66
2023/01/01 00:30:24;;;;;;;8.52;7.68;;;;;;;3.39;93.02;100496.53;5113763;28;20052;-66
2023/01/01 00:32:54;;;;;;;4.63;3.95;;;;;;;3.37;92.87;100493.09;5113551;28;20143;-66
2023/01/01 00:35:24;;;;;;;3.90;3.58;;;;;;;3.31;93.20;100493.69;5117101;28;20126;-66
2023/01/01 00:37:55;;;;;;;7.63;5.80;;;;;;;3.33;92.89;100503.88;5117035;28;20069;-66
2023/01/01 00:40:24;;;;;;;6.90;3.45;;;;;;;3.29;93.13;100512.09;5116020;28;20047;-66
2023/01/01 00:42:53;;;;;;;23.83;5.13;;;;;;;3.28;93.65;100507.88;5116887;28;20078;-66
2023/01/01 00:45:22;;;;;;;8.73;5.28;;;;;;;3.26;93.33;100502.72;5116881;28;20043;-66
2023/01/01 00:47:54;;;;;;;3.30;3.10;;;;;;;3.20;92.51;100514.25;5117160;28;20550;-66
2023/01/01 00:50:23;;;;;;;4.95;3.65;;;;;;;3.16;93.04;100507.34;5117139;28;20048;-66
2023/01/01 00:52:52;;;;;;;3.85;3.53;;;;;;;3.13;92.63;100505.56;5116600;28;20126;-66
2023/01/01 00:55:21;;;;;;;4.37;3.97;;;;;;;3.09;93.02;100507.91;5116676;28;20071;-66
2023/01/01 00:57:49;;;;;;;4.53;4.13;;;;;;;3.09;92.46;100495.28;5116655;28;20093;-66
2023/01/01 01:00:19;;;;;;;8.38;5.18;;;;;;;3.13;92.39;100502.16;5116620;28;20036;-66
2023/01/01 01:02:48;;;;;;;5.15;3.53;;;;;;;3.13;93.08;100508.09;5116826;28;20088;-66
2023/01/01 01:05:18;;;;;;;6.20;3.27;;;;;;;3.14;93.25;100498.88;5116494;28;20048;-66
2023/01/01 01:07:47;;;;;;;6.38;5.03;;;;;;;3.10;92.63;100497.00;5116798;28;20882;-66
2023/01/01 01:10:16;;;;;;;13.85;8.02;;;;;;;3.06;92.87;100497.66;5116496;28;20118;-66
2023/01/01 01:12:45;;;;;;;5.97;5.38;;;;;;;3.03;92.38;100484.94;5116309;28;20508;-66
2023/01/01 01:15:14;;;;;;;4.30;3.97;;;;;;;2.89;92.45;100483.47;5116303;28;20048;-66
2023/01/01 01:17:43;;;;;;;6.88;6.25;;;;;;;2.91;92.28;100481.88;5116319;28;20055;-66
2023/01/01 01:20:13;;;;;;;4.45;3.17;;;;;;;2.92;92.08;100478.59;5116262;28;20127;-66
2023/01/01 01:22:43;;;;;;;5.75;5.13;;;;;;;2.95;92.49;100471.16;5116218;28;20044;-66
2023/01/01 01:25:12;;;;;;;3.03;2.83;;;;;;;2.94;92.08;100482.03;5116254;28;20043;-67
2023/01/01 01:27:40;;;;;;;5.80;5.10;;;;;;;2.96;92.86;100488.00;5115974;28;20071;-66
2023/01/01 01:30:10;;;;;;;7.57;6.63;;;;;;;2.96;92.54;100493.03;5116068;28;20524;-66
2023/01/01 01:32:39;;;;;;;6.90;6.30;;;;;;;2.90;92.16;100482.69;5115928;28;20126;-66
2023/01/01 01:35:08;;;;;;;5.85;5.45;;;;;;;2.93;92.73;100482.84;5115809;28;20043;-66
2023/01/01 01:37:37;;;;;;;6.40;5.85;;;;;;;2.93;92.12;100487.88;5116236;28;20039;-67
2023/01/01 01:40:09;;;;;;;3.70;3.40;;;;;;;2.93;92.41;100477.81;5115836;28;20085;-66
2023/01/01 01:42:38;;;;;;;5.90;3.92;;;;;;;2.95;92.64;100479.56;5115832;28;20047;-67
2023/01/01 01:45:10;;;;;;;4.03;3.72;;;;;;;2.96;92.84;100478.78;5115669;28;20043;-66
2023/01/01 01:47:47;;;;;;;4.72;4.03;;;;;;;2.98;92.17;100481.34;5115742;28;20116;-67
2023/01/01 01:50:23;;;;;;;4.43;4.10;;;;;;;3.01;92.16;100476.44;5114416;28;20400;-66
2023/01/01 01:53:05;;;;;;;5.82;5.25;;;;;;;3.09;93.02;100462.50;5115562;28;20131;-66
2023/01/01 01:55:39;;;;;;;3.88;3.60;;;;;;;3.09;92.70;100459.97;5115541;27;20092;-67
2023/01/01 01:58:11;;;;;;;6.05;5.53;;;;;;;2.86;93.06;100431.28;5115780;28;20393;-67
2023/01/01 02:00:40;;;;;;;4.07;3.50;;;;;;;3.07;93.27;100456.53;5115480;28;20126;-66
2023/01/01 02:03:14;;;;;;;7.05;6.38;;;;;;;3.06;93.01;100463.25;5115416;28;20048;-67
2023/01/01 02:05:44;;;;;;;6.90;6.07;;;;;;;3.06;93.31;100472.44;5115670;28;20576;-66
2023/01/01 02:08:14;;;;;;;5.38;4.18;;;;;;;3.04;93.11;100458.94;5115590;28;20043;-67
2023/01/01 02:10:45;;;;;;;7.22;4.47;;;;;;;3.01;92.73;100451.22;5115582;28;20081;-67
2023/01/01 02:13:14;;;;;;;12.55;4.47;;;;;;;2.98;92.70;100459.53;5115151;28;20039;-67
2023/01/01 02:15:49;;;;;;;;;;;;;;;3.00;92.73;100459.59;5115844;28;20490;-67
2023/01/01 02:18:23;;;;;;;5.00;4.53;;;;;;;2.97;93.53;100467.03;5115438;28;19928;-66
2023/01/01 02:20:59;;;;;;;4.82;4.43;;;;;;;2.97;93.84;100459.47;5115362;28;20397;-66
2023/01/01 02:23:56;;;;;;;4.82;3.90;;;;;;;2.98;93.38;100461.19;5115009;28;20051;-67
2023/01/01 02:26:45;;;;;;;2.67;2.47;;;;;;;2.97;93.61;100465.38;5109013;28;20047;-67
2023/01/01 02:29:27;;;;;;;4.22;3.25;;;;;;;3.00;93.50;100460.44;5115237;28;20134;-67
2023/01/01 02:32:00;;;;;;;3.70;2.85;;;;;;;3.00;93.13;100447.00;5114892;28;20092;-67
2023/01/01 02:34:35;;;;;;;2.90;2.67;;;;;;;3.02;93.70;100443.75;5113640;28;20044;-67
2023/01/01 02:37:07;;;;;;;4.25;1.75;;;;;;;3.00;93.48;100444.47;5114997;28;20478;-67
2023/01/01 02:39:42;;;;;;;9.60;4.07;;;;;;;2.99;93.58;100452.81;5114759;28;20044;-67
2023/01/01 02:42:11;;;;;;;7.97;4.50;;;;;;;2.95;93.45;100456.03;5114629;28;20126;-67
2023/01/01 02:44:45;;;;;;;3.58;3.28;;;;;;;2.95;93.77;100456.03;5114576;28;20063;-67
2023/01/01 02:47:17;;;;;;;5.28;2.95;;;;;;;2.94;93.36;100454.28;5114866;27;20090;-67
2023/01/01 02:49:55;;;;;;;3.97;3.67;;;;;;;2.95;94.07;100459.38;5115454;28;20058;-67
2023/01/01 02:52:49;;;;;;;3.47;3.20;;;;;;;2.96;93.00;100453.56;5114572;28;20097;-67
2023/01/01 02:55:29;;;;;;;2.42;2.22;;;;;;;2.96;93.46;100442.59;5114405;28;20075;-67
2023/01/01 03:01:00;;;;;;;3.67;3.40;;;;;;;2.89;93.74;100436.47;5114330;28;20047;-67
2023/01/01 03:03:37;;;;;;;4.22;3.83;;;;;;;2.68;92.94;100396.13;5114678;28;20538;-67
2023/01/01 03:09:02;;;;;;;18.10;2.67;;;;;;;2.89;93.82;100445.69;5114208;28;20047;-67
2023/01/01 03:11:42;;;;;;;5.45;4.72;;;;;;;2.85;93.60;100448.88;5114549;28;20051;-67
2023/01/01 03:14:20;;;;;;;2.70;2.38;;;;;;;2.83;93.69;100435.34;5114317;28;20126;-67
2023/01/01 03:16:54;;;;;;;3.88;3.45;;;;;;;2.78;93.19;100431.78;5114149;28;20051;-67
2023/01/01 03:19:26;;;;;;;4.07;2.83;;;;;;;2.73;92.89;100439.97;5114077;28;20043;-67
2023/01/01 03:21:59;;;;;;;2.75;2.55;;;;;;;2.69;93.24;100438.13;5114104;28;20043;-67
2023/01/01 03:24:33;;;;;;;4.00;2.47;;;;;;;2.66;93.65;100443.03;5114044;28;20486;-67
2023/01/01 03:27:08;;;;;;;3.78;2.63;;;;;;;2.63;92.64;100440.41;5113645;28;20533;-67
2023/01/01 03:29:42;;;;;;;5.05;2.88;;;;;;;2.59;92.69;100436.00;5114308;28;20464;-67
2023/01/01 03:32:18;;;;;;;6.18;2.03;;;;;;;2.55;93.58;100430.78;5114273;28;20447;-67
2023/01/01 03:34:53;;;;;;;2.47;2.28;;;;;;;2.49;93.56;100444.00;5113911;28;20071;-67
2023/01/01 03:37:27;;;;;;;1.65;1.55;;;;;;;2.45;93.00;100436.22;5114262;28;20516;-67
2023/01/01 03:39:59;;;;;;;2.65;2.45;;;;;;;2.43;92.61;100427.72;5113975;28;20512;-67
2023/01/01 03:42:35;;;;;;;3.10;2.83;;;;;;;2.36;93.30;100411.50;5113922;28;20059;-67
2023/01/01 03:45:08;;;;;;;4.60;4.10;;;;;;;2.43;92.92;100426.09;5113875;28;20096;-67
2023/01/01 03:47:39;;;;;;;3.47;3.17;;;;;;;2.44;93.55;100416.88;5113820;28;20048;-67
2023/01/01 03:50:08;;;;;;;3.15;2.63;;;;;;;2.43;92.54;100418.53;5114380;28;20421;-67
2023/01/01 03:52:42;;;;;;;;;;;;;;;2.39;93.37;100430.94;5114152;28;20054;-67
2023/01/01 03:55:19;;;;;;;2.35;1.50;;;;;;;2.35;92.79;100436.63;5113729;28;19970;-67
2023/01/01 03:57:57;;;;;;;7.32;3.08;;;;;;;2.37;92.82;100438.44;5114382;28;20130;-67
2023/01/01 04:00:32;;;;;;;1.92;1.83;;;;;;;2.41;93.00;100440.28;5113699;28;20107;-67
2023/01/01 04:03:07;;;;;;;1.55;1.45;;;;;;;2.43;93.00;100436.16;5114013;28;20094;-67
2023/01/01 04:05:39;;;;;;;2.80;2.22;;;;;;;2.46;93.05;100443.84;5113702;28;20040;-67
2023/01/01 04:08:09;;;;;;;3.28;2.03;;;;;;;2.52;92.89;100448.31;5114323;28;20493;-67
2023/01/01 04:10:43;;;;;;;1.77;1.67;;;;;;;2.55;93.53;100453.47;5117900;28;20055;-67
2023/01/01 04:13:14;;;;;;;6.18;3.17;;;;;;;2.53;93.07;100460.97;5117585;27;20043;-67
2023/01/01 04:15:43;;;;;;;14.95;3.83;;;;;;;2.52;92.94;100468.47;5117762;28;20190;-68
2023/01/01 04:18:13;;;;;;;1.60;1.50;;;;;;;2.52;92.67;100465.94;5117586;28;20047;-67
2023/01/01 04:20:42;;;;;;;3.15;2.28;;;;;;;2.51;92.88;100471.75;5116152;28;20478;-67
2023/01/01 04:23:11;;;;;;;2.88;2.20;;;;;;;2.48;92.48;100461.53;5117419;28;20092;-67
2023/01/01 04:25:40;;;;;;;4.23;3.30;;;;;;;2.46;92.58;100464.00;5116975;28;20047;-67
2023/01/01 04:28:09;;;;;;;3.28;2.97;;;;;;;2.44;92.55;100464.72;5117337;28;20494;-67
2023/01/01 04:30:37;;;;;;;2.43;2.20;;;;;;;2.38;93.55;100475.41;5117480;28;20576;-67
2023/01/01 04:33:05;;;;;;;3.90;2.58;;;;;;;2.31;92.90;100468.38;5117165;28;20529;-67
2023/01/01 04:35:35;;;;;;;1.38;1.27;;;;;;;2.28;93.36;100465.69;5117089;28;20043;-67
2023/01/01 04:38:04;;;;;;;1.70;1.60;;;;;;;2.23;93.13;100458.75;5117131;28;20425;-67
2023/01/01 04:40:33;;;;;;;2.05;1.95;;;;;;;2.18;93.26;100455.16;5116018;28;20052;-67
2023/01/01 04:43:02;;;;;;;2.38;2.17;;;;;;;2.15;92.49;100450.84;5116922;28;20069;-67
2023/01/01 04:45:31;;;;;;;1.73;1.63;;;;;;;2.07;92.46;100457.19;5117281;28;20043;-67
2023/01/01 04:48:04;;;;;;;3.40;2.25;;;;;;;2.07;92.98;100457.19;5115635;28;20134;-67
2023/01/01 04:50:33;;;;;;;3.10;2.80;;;;;;;2.07;92.51;100463.88;5116823;28;20040;-67
2023/01/01 04:53:03;;;;;;;3.90;2.23;;;;;;;2.04;92.14;100467.09;5116803;28;20127;-67
2023/01/01 04:55:33;;;;;;;3.75;3.00;;;;;;;2.02;92.80;100469.56;5116716;28;20040;-67
2023/01/01 04:58:02;;;;;;;3.03;2.80;;;;;;;1.97;92.61;100465.09;5116719;28;20044;-67
2023/01/01 05:00:31;;;;;;;3.33;3.03;;;;;;;1.98;92.04;100466.84;5116635;28;20047;-67
2023/01/01 05:03:00;;;;;;;1.73;1.63;;;;;;;1.91;92.89;100469.88;5116576;28;20074;-67
2023/01/01 05:05:29;;;;;;;5.40;3.70;;;;;;;1.84;92.93;100467.88;5116870;28;20051;-67
2023/01/01 05:07:57;;;;;;;2.93;2.73;;;;;;;1.84;92.32;100472.91;5116492;28;20043;-67
2023/01/01 05:10:27;;;;;;;3.00;2.75;;;;;;;1.78;92.73;100473.47;5116503;27;20280;-67
2023/01/01 05:12:56;;;;;;;2.22;1.85;;;;;;;1.83;92.56;100479.59;5116668;28;20127;-67
2023/01/01 05:15:25;;;;;;;2.67;2.33;;;;;;;1.87;92.64;100485.63;5116241;28;20122;-67
2023/01/01 05:17:54;;;;;;;2.95;1.85;;;;;;;1.88;92.61;100477.28;5116282;28;20051;-68
2023/01/01 05:20:23;;;;;;;2.15;1.95;;;;;;;1.91;92.88;100482.47;5115556;28;20046;-67
2023/01/01 05:22:52;;;;;;;1.35;1.25;;;;;;;1.94;92.32;100485.13;5115668;28;20127;-67
2023/01/01 05:25:21;;;;;;;4.30;2.92;;;;;;;1.96;92.29;100486.06;5115928;28;20040;-67
2023/01/01 05:27:51;;;;;;;4.00;2.07;;;;;;;1.96;91.72;100473.47;5115964;28;20083;-68
2023/01/01 05:30:22;;;;;;;3.10;2.83;;;;;;;1.96;92.71;100468.44;5116194;28;20409;-68
2023/01/01 05:32:51;;;;;;;3.50;3.20;;;;;;;2.00;92.28;100481.22;5115981;28;20039;-68
2023/01/01 05:35:19;;;;;;;3.20;2.97;;;;;;;1.98;92.74;100482.81;5115929;28;20043;-68
2023/01/01 05:37:55;;;;;;;5.18;3.30;;;;;;;1.96;91.82;100478.50;5115996;28;20276;-68
2023/01/01 05:40:23;;;;;;;;;;;;;;;1.95;91.97;100486.84;5116260;28;20539;-68
2023/01/01 05:42:53;;;;;;;1.77;1.63;;;;;;;1.94;92.25;100485.13;5115767;28;19920;-68
2023/01/01 05:45:22;;;;;;;7.32;3.70;;;;;;;1.91;91.89;100500.06;5115821;28;20131;-67
2023/01/01 05:47:51;;;;;;;1.50;1.40;;;;;;;1.87;91.63;100509.13;5116054;28;20093;-67
2023/01/01 05:50:20;;;;;;;2.80;1.80;;;;;;;1.86;92.72;100512.44;5115651;28;20077;-67
2023/01/01 05:52:49;;;;;;;1.97;1.80;;;;;;;1.84;92.69;100518.19;5115826;28;20040;-67
2023/01/01 05:55:18;;;;;;;4.82;3.65;;;;;;;1.82;92.62;100509.72;5115474;28;20288;-68
2023/01/01 05:57:46;;;;;;;4.70;4.33;;;;;;;1.87;92.62;100518.34;5115856;28;20042;-68
2023/01/01 06:00:17;;;;;;;3.83;2.63;;;;;;;1.92;91.91;100516.91;5115808;28;20044;-68
2023/01/01 06:02:48;;;;;;;1.75;1.65;;;;;;;1.93;92.38;100523.66;5115424;28;20122;-68
2023/01/01 06:05:18;;;;;;;5.00;2.38;;;;;;;1.90;92.16;100523.50;5114475;28;20493;-68
2023/01/01 06:07:47;;;;;;;2.67;2.47;;;;;;;1.90;92.09;100523.50;5114416;28;20485;-67
2023/01/01 06:10:16;;;;;;;2.03;1.83;;;;;;;1.89;92.06;100531.88;5115260;28;20042;-68
2023/01/01 06:12:45;;;;;;;2.63;2.40;;;;;;;1.87;92.51;100529.25;5115206;28;20089;-67
2023/01/01 06:15:14;;;;;;;3.70;3.20;;;;;;;1.90;91.78;100529.41;5115291;28;20645;-68
2023/01/01 06:17:44;;;;;;;2.03;1.90;;;;;;;1.91;92.47;100530.28;5115135;28;20288;-68
2023/01/01 06:20:13;;;;;;;1.92;1.83;;;;;;;1.88;92.10;100535.16;5115034;28;20075;-68
2023/01/01 06:22:42;;;;;;;1.53;1.43;;;;;;;1.86;91.81;100531.72;5115335;28;20044;-67
2023/01/01 06:25:11;;;;;;;8.53;1.53;;;;;;;1.84;92.01;100538.34;5114919;28;20769;-67
2023/01/01 06:27:40;;;;;;;4.07;3.70;;;;;;;1.80;92.52;100532.28;5114732;28;20075;-68
2023/01/01 06:30:10;;;;;;;5.32;4.53;;;;;;;1.81;92.35;100538.19;5114858;28;20044;-68
2023/01/01 06:32:39;;;;;;;1.02;1.02;;;;;;;1.82;92.58;100539.91;5114081;28;20039;-67
2023/01/01 06:35:10;;;;;;;3.17;2.88;;;;;;;1.80;91.72;100546.53;5114726;28;20085;-67
2023/01/01 06:37:39;;;;;;;2.03;1.90;;;;;;;1.80;92.66;100542.34;5114734;28;20050;-67
2023/01/01 06:40:09;;;;;;;3.70;3.23;;;;;;;1.83;92.12;100546.66;5114696;28;20044;-67
2023/01/01 06:42:38;;;;;;;1.63;1.52;;;;;;;1.82;91.66;100549.97;5114927;28;20434;-68
2023/01/01 06:45:09;;;;;;;5.57;2.65;;;;;;;1.74;92.53;100561.31;5114672;28;20118;-68
2023/01/01 06:47:38;;;;;;;1.23;1.13;;;;;;;1.69;91.51;100565.25;5114875;28;20047;-68
2023/01/01 06:50:09;;;;;;;1.10;1.00;;;;;;;1.69;91.72;100575.31;5114493;28;20077;-68
2023/01/01 06:52:38;;;;;;;3.20;2.83;;;;;;;1.75;91.73;100568.09;5114537;28;20071;-68
2023/01/01 06:55:07;;;;;;;0.65;0.65;;;;;;;1.79;92.02;100559.88;5114689;28;20401;-68
2023/01/01 06:57:36;;;;;;;;;;;;;;;1.84;92.45;100564.38;5114845;28;20047;-67
2023/01/01 07:00:06;;;;;;;1.15;1.13;;;;;;;1.84;91.60;100581.09;5114645;28;20269;-68
2023/01/01 07:02:34;;;;;;;2.25;1.60;;;;;;;1.86;91.88;100571.97;5114936;28;20397;-67
2023/01/01 07:05:04;;;;;;;2.15;2.00;;;;;;;1.89;92.06;100572.13;5114560;28;20043;-67
2023/01/01 07:07:34;;;;;;;1.13;1.13;;;;;;;1.92;92.32;100567.25;5114254;28;20451;-67
2023/01/01 07:10:04;;;;;;;2.47;2.30;;;;;;;1.90;92.09;100573.84;5114237;28;20135;-67
2023/01/01 07:12:33;;;;;;;2.47;2.28;;;;;;;1.88;92.58;100575.44;5114154;28;20035;-67
2023/01/01 07:15:01;;;;;;;2.25;2.10;;;;;;;1.91;91.87;100576.44;5114466;28;20066;-67
2023/01/01 07:17:31;;;;;;;2.05;1.63;;;;;;;1.96;92.46;100574.16;5113996;28;20047;-67
2023/01/01 07:20:00;;;;;;;9.18;6.22;;;;;;;1.94;91.70;100580.75;5114092;28;20048;-67
2023/01/01 07:22:29;;;;;;;1.35;1.25;;;;;;;1.95;92.18;100585.00;5114637;28;20439;-67
2023/01/01 07:24:59;;;;;;;1.40;1.30;;;;;;;1.96;91.98;100584.22;5114031;28;20044;-67
2023/01/01 07:27:28;;;;;;;1.63;1.52;;;;;;;1.98;92.29;100587.66;5113572;28;20401;-67
2023/01/01 07:29:57;;;;;;;17.10;4.53;;;;;;;2.00;92.37;100586.94;5114291;28;20171;-67
2023/01/01 07:32:26;;;;;;;3.57;3.07;;;;;;;2.09;92.64;100589.03;5113977;28;20123;-67
2023/01/01 07:34:54;;;;;;;2.22;2.10;;;;;;;2.11;92.36;100590.00;5114176;28;20036;-67
2023/01/01 07:37:25;;;;;;;0.90;0.90;;;;;;;2.15;91.82;100588.47;5113848;28;20046;-67
2023/01/01 07:39:53;;;;;;;2.33;2.08;;;;;;;2.21;92.55;100594.63;5113896;28;20055;-68
2023/01/01 07:42:24;;;;;;;1.98;1.80;;;;;;;2.29;92.20;100600.91;5114573;28;20046;-68
2023/01/01 07:44:53;;;;;;;3.35;2.38;;;;;;;2.39;92.42;100589.59;5118200;28;20044;-68
2023/01/01 07:47:24;;;;;;;1.80;1.70;;;;;;;2.46;92.17;100584.91;5117081;28;20385;-68
2023/01/01 07:49:53;;;;;;;1.40;1.30;;;;;;;2.58;92.44;100585.47;5118345;28;20272;-68
2023/01/01 07:52:22;;;;;;;2.15;1.95;;;;;;;2.65;92.90;100595.03;5118495;28;20503;-68
2023/01/01 07:54:51;;;;;;;6.90;4.60;;;;;;;2.77;92.91;100596.38;5117952;28;20039;-68
2023/01/01 07:57:20;;;;;;;;;;;;;;;2.95;92.86;100602.25;5118125;28;20039;-68
2023/01/01 07:59:50;;;;;;;2.97;2.78;;;;;;;3.11;93.01;100595.41;5117804;28;20010;-68
2023/01/01 08:02:21;;;;;;;2.33;2.13;;;;;;;3.31;92.76;100599.63;5116976;28;20075;-68
2023/01/01 08:04:50;;;;;;;1.45;1.35;;;;;;;3.52;92.92;100589.63;5118045;28;20036;-68
2023/01/01 08:07:19;;;;;;;2.27;2.13;;;;;;;3.75;93.27;100588.88;5117689;28;20064;-68
2023/01/01 08:09:48;;;;;;;2.47;2.30;;;;;;;3.97;92.69;100588.97;5117581;28;20279;-68
2023/01/01 08:12:17;;;;;;;1.33;1.23;;;;;;;4.16;93.35;100585.50;5117583;28;20039;-68
2023/01/01 08:14:46;;;;;;;1.13;1.03;;;;;;;4.34;93.21;100587.88;5117600;28;20397;-68
2023/01/01 08:17:16;;;;;;;1.52;1.42;;;;;;;4.53;92.91;100591.16;5117384;28;20292;-68
2023/01/01 08:19:45;;;;;;;2.50;2.30;;;;;;;4.61;92.95;100589.78;5117824;28;20048;-68
2023/01/01 08:22:15;;;;;;;0.70;0.70;;;;;;;4.58;92.80;100577.00;5117637;28;20387;-68
2023/01/01 08:24:43;;;;;;;10.73;3.42;;;;;;;4.75;93.02;100603.78;5117367;28;20055;-68
2023/01/01 08:27:13;;;;;;;1.57;1.47;;;;;;;4.84;93.16;100612.53;5117040;28;20065;-68
2023/01/01 08:29:42;;;;;;;2.45;2.17;;;;;;;4.93;93.26;100613.72;5117212;28;20065;-68
2023/01/01 08:32:11;;;;;;;1.83;1.73;;;;;;;5.00;93.10;100610.63;5117226;28;20092;-68
2023/01/01 08:34:42;;;;;;;2.85;2.60;;;;;;;5.07;93.12;100612.56;5117113;28;20044;-68
2023/01/01 08:37:13;;;;;;;1.50;1.40;;;;;;;5.13;93.10;100610.25;5117421;28;20485;-68
2023/01/01 08:39:42;;;;;;;2.17;2.00;;;;;;;5.15;92.99;100606.13;5117149;28;20067;-68
2023/01/01 08:42:11;;;;;;;1.67;1.40;;;;;;;5.16;92.88;100602.75;5117020;28;20069;-68
2023/01/01 08:44:40;;;;;;;1.58;1.48;;;;;;;5.20;93.00;100603.75;5116429;28;20119;-68
2023/01/01 08:47:17;;;;;;;2.58;1.77;;;;;;;5.18;93.29;100601.13;5116901;28;20043;-68
2023/01/01 08:49:48;;;;;;;4.57;2.20;;;;;;;5.31;93.20;100610.03;5117195;28;20036;-68
2023/01/01 08:52:18;;;;;;;1.85;0.85;;;;;;;5.37;93.13;100603.50;5116815;28;20047;-67
2023/01/01 08:54:48;;;;;;;4.28;3.88;;;;;;;5.51;93.06;100610.72;5116334;28;20104;-68
2023/01/01 08:57:16;;;;;;;1.77;1.65;;;;;;;5.65;93.07;100629.78;5116629;28;20052;-67
2023/01/01 08:59:45;;;;;;;2.03;1.90;;;;;;;5.75;93.37;100631.81;5116972;28;20150;-67
2023/01/01 09:02:14;;;;;;;3.33;1.83;;;;;;;5.82;93.46;100636.28;5116516;28;20552;-67
2023/01/01 09:04:43;;;;;;;6.55;4.53;;;;;;;5.84;93.24;100630.50;5115365;28;20056;-67
2023/01/01 09:07:14;;;;;;;3.40;3.10;;;;;;;5.95;93.23;100631.69;5116596;28;20122;-67
2023/01/01 09:09:42;;;;;;;5.25;3.20;;;;;;;6.02;93.53;100633.59;5116491;28;20093;-68
2023/01/01 09:12:14;;;;;;;3.27;2.97;;;;;;;6.14;93.08;100632.31;5116778;28;20031;-67
2023/01/01 09:14:46;;;;;;;3.70;3.13;;;;;;;6.20;93.02;100632.47;5116357;28;20268;-67
2023/01/01 09:17:15;;;;;;;4.78;4.22;;;;;;;6.25;93.02;100626.75;5116280;28;20048;-67
2023/01/01 09:19:44;;;;;;;5.43;2.87;;;;;;;6.21;92.82;100627.47;5116567;28;20438;-67
2023/01/01 09:22:14;;;;;;;3.57;2.53;;;;;;;6.21;92.83;100624.94;5116224;28;20513;-67
2023/01/01 09:24:43;;;;;;;3.97;3.17;;;;;;;6.25;92.53;100618.28;5116533;28;20382;-67
2023/01/01 09:27:12;;;;;;;1.50;1.40;;;;;;;6.29;92.41;100603.22;5115971;28;20581;-66
2023/01/01 09:29:40;;;;;;;2.22;1.67;;;;;;;6.38;93.08;100608.56;5116145;27;20558;-68
2023/01/01 09:32:09;;;;;;;1.15;1.05;;;;;;;6.43;92.86;100608.72;5116036;28;20048;-67
2023/01/01 09:34:38;;;;;;;3.13;2.90;;;;;;;6.56;92.41;100599.00;5116323;28;20130;-67
2023/01/01 09:37:07;;;;;;;3.25;2.33;;;;;;;6.61;92.20;100587.31;5115883;28;20284;-67
2023/01/01 09:39:37;;;;;;;2.45;2.28;;;;;;;6.67;92.27;100584.94;5115876;28;20485;-68
2023/01/01 09:42:27;;;;;;;3.70;2.70;;;;;;;6.72;91.83;100585.94;5115934;28;20485;-67
2023/01/01 09:45:15;;;;;;;1.98;1.88;;;;;;;6.83;91.93;100583.72;5116090;28;20524;-67
2023/01/01 09:47:50;;;;;;;2.35;2.03;;;;;;;6.91;91.57;100581.41;5116084;28;20750;-67
2023/01/01 09:50:22;;;;;;;1.98;1.75;;;;;;;7.08;90.84;100570.06;5115707;28;20043;-67
2023/01/01 09:52:55;;;;;;;1.17;1.02;;;;;;;7.24;91.53;100572.19;5115566;28;20046;-67
2023/01/01 09:55:29;;;;;;;2.08;1.90;;;;;;;7.34;91.62;100569.91;5115642;28;20052;-67
2023/01/01 09:57:59;;;;;;;2.38;2.05;;;;;;;7.49;91.40;100573.66;5115409;28;20100;-67
2023/01/01 10:00:33;;;;;;;3.13;2.85;;;;;;;7.60;90.21;100568.06;5116065;28;20043;-67
2023/01/01 10:03:12;;;;;;;5.15;3.08;;;;;;;7.71;90.88;100566.63;5115530;28;20086;-67
2023/01/01 10:05:52;;;;;;;3.90;3.50;;;;;;;7.90;90.36;100573.88;5114843;28;20401;-67
2023/01/01 10:08:43;;;;;;;3.38;2.65;;;;;;;8.03;90.08;100577.59;5115337;28;20047;-67
2023/01/01 10:11:20;;;;;;;4.13;3.45;;;;;;;8.16;90.12;100584.66;5114689;28;20036;-67
2023/01/01 10:13:51;;;;;;;2.47;1.92;;;;;;;8.32;90.19;100580.84;5115138;28;20063;-67
2023/01/01 10:16:30;;;;;;;2.95;2.33;;;;;;;8.42;89.62;100564.97;5115255;28;20101;-67
2023/01/01 10:19:06;;;;;;;1.52;1.42;;;;;;;8.56;89.59;100563.56;5115020;28;20043;-67
2023/01/01 10:21:40;;;;;;;1.73;1.33;;;;;;;8.88;88.96;100582.06;5115431;28;20040;-66
2023/01/01 10:24:27;;;;;;;6.85;2.67;;;;;;;9.15;89.46;100582.59;5115014;28;20057;-66
2023/01/01 10:26:59;;;;;;;1.65;1.48;;;;;;;9.31;88.70;100572.72;5114764;28;20130;-67
2023/01/01 10:29:33;;;;;;;1.52;1.42;;;;;;;9.45;88.89;100573.00;5115472;28;20056;-67
2023/01/01 10:32:15;;;;;;;10.48;3.33;;;;;;;9.71;88.37;100570.91;5114881;28;20066;-67
2023/01/01 10:34:44;;;;;;;2.17;2.08;;;;;;;9.87;87.60;100572.88;5114895;28;20067;-67
2023/01/01 10:37:13;;;;;;;1.88;1.55;;;;;;;9.96;87.62;100575.56;5115005;28;20096;-67
2023/01/01 10:39:43;;;;;;;1.38;1.27;;;;;;;10.03;87.03;100578.22;5114706;28;20557;-67
2023/01/01 10:42:15;;;;;;;3.05;2.13;;;;;;;10.25;87.51;100582.00;5113523;28;20044;-66
2023/01/01 10:44:44;;;;;;;1.63;1.52;;;;;;;10.53;87.11;100580.72;5114627;28;20054;-66
2023/01/01 10:47:25;;;;;;;0.97;0.87;;;;;;;10.76;86.68;100581.88;5114594;28;20486;-67
2023/01/01 10:49:58;;;;;;;1.50;1.13;;;;;;;10.94;86.21;100576.16;5114833;28;20280;-66
2023/01/01 10:52:31;;;;;;;2.90;2.05;;;;;;;10.97;85.19;100582.13;5114608;28;20047;-66
2023/01/01 10:55:00;;;;;;;2.78;2.17;;;;;;;11.04;84.60;100572.84;5114486;28;20044;-65
2023/01/01 10:57:36;;;;;;;1.00;0.98;;;;;;;11.10;83.47;100570.38;5114264;28;20497;-65
2023/01/01 11:00:21;;;;;;;2.92;2.25;;;;;;;11.14;82.76;100559.34;5114778;28;20117;-65
2023/01/01 11:03:12;;;;;;;2.25;1.17;;;;;;;11.21;82.13;100561.13;5114701;28;20054;-65
2023/01/01 11:06:05;;;;;;;1.23;1.13;;;;;;;11.27;81.51;100556.09;5113327;28;20048;-66
2023/01/01 11:08:38;;;;;;;1.80;1.50;;;;;;;11.37;81.16;100547.69;5113079;28;20039;-66
2023/01/01 11:11:07;;;;;;;1.55;1.45;;;;;;;11.50;81.11;100543.50;5104315;28;20047;-65
2023/01/01 11:13:37;;;;;;;2.17;2.00;;;;;;;11.58;80.61;100537.66;5111501;28;20051;-65
2023/01/01 11:16:11;;;;;;;4.03;2.42;;;;;;;11.62;80.32;100534.25;5114121;28;20390;-65
2023/01/01 11:18:41;;;;;;;2.17;1.88;;;;;;;11.70;80.19;100526.69;5113722;28;20130;-65
2023/01/01 11:21:10;;;;;;;2.97;1.97;;;;;;;11.65;79.95;100526.63;5099063;28;20040;-65
2023/01/01 11:23:40;;;;;;;2.07;1.87;;;;;;;11.59;80.09;100529.13;5093949;28;20077;-65
2023/01/01 11:26:23;;;;;;;2.50;1.48;;;;;;;11.64;80.14;100522.34;5093924;28;20712;-65
2023/01/01 11:29:05;;;;;;;1.95;1.75;;;;;;;11.74;80.16;100526.72;5093689;28;20040;-65
2023/01/01 11:31:36;;;;;;;;;;;;;;;11.90;79.75;100536.22;5094382;28;20943;-65
2023/01/01 11:34:22;;;;;;;1.75;1.63;;;;;;;11.95;79.62;100529.44;5093708;28;20018;-65
2023/01/01 11:36:51;;;;;;;1.70;1.40;;;;;;;12.03;79.62;100517.56;5092494;28;20066;-65
2023/01/01 11:39:25;;;;;;;4.13;2.13;;;;;;;12.09;79.67;100512.47;5093451;28;20039;-65
2023/01/01 11:41:56;;;;;;;1.35;1.10;;;;;;;12.18;79.23;100515.97;5093462;28;20127;-65
2023/01/01 11:44:35;;;;;;;1.58;1.27;;;;;;;12.24;79.22;100508.34;5093459;28;20052;-65
2023/01/01 11:47:05;;;;;;;1.52;1.42;;;;;;;12.30;78.93;100510.91;5093781;28;20436;-66
2023/01/01 11:49:35;;;;;;;4.60;2.03;;;;;;;12.40;78.67;100505.88;5093411;28;20040;-65
2023/01/01 11:52:28;;;;;;;9.82;1.92;;;;;;;12.50;78.61;100504.22;5093458;28;20105;-65
2023/01/01 11:55:10;;;;;;;1.27;1.17;;;;;;;12.60;77.90;100511.06;5093661;28;20055;-66
2023/01/01 11:57:51;;;;;;;1.55;1.33;;;;;;;12.70;77.71;100511.13;5093327;28;20044;-66
2023/01/01 12:00:21;;;;;;;2.05;1.85;;;;;;;12.79;77.36;100517.97;5097941;28;20062;-65
2023/01/01 12:02:57;;;;;;;2.13;1.48;;;;;;;12.86;76.73;100509.44;5096141;28;20053;-66